ROA252 SCTE-SCEL
Flight info
| Callsign | ROA252 |
|---|---|
| Flight time | 1h 21m |
| Altitude | 36000 |
| Route | ANROS6A ANROS UQ802 EROLO EROLO7F |
| Aircraft | A320/M-SDE3FGHIRWY/LB1 |
Departure
| Time | 2026-04-16 22:09 |
|---|---|
| Airport | El Tepual International Airport (SCTE) |
Arrival
| Time | 2026-04-16 23:30 |
|---|---|
| Airport | Comodoro Arturo Merino Benítez International Airport (SCEL) |
| Time | Latitude | Longitude | Altitude | Speed | Heading |
|---|---|---|---|---|---|
| 2026-04-16 21:48 | -41.43368 | -73.09749 | 303 ft | 0 kts | 270° |
| 2026-04-16 21:58 | -41.43369 | -73.09726 | 303 ft | 4 kts | 270° |
| 2026-04-16 21:58 | -41.43368 | -73.09690 | 301 ft | 4 kts | 268° |
| 2026-04-16 21:59 | -41.43367 | -73.09654 | 301 ft | 4 kts | 264° |
| 2026-04-16 21:59 | -41.43363 | -73.09619 | 301 ft | 4 kts | 246° |
| 2026-04-16 21:59 | -41.43350 | -73.09597 | 303 ft | 2 kts | 185° |
| 2026-04-16 21:59 | -41.43348 | -73.09597 | 301 ft | 0 kts | 181° |
| 2026-04-16 22:02 | -41.43352 | -73.09597 | 301 ft | 3 kts | 182° |
| 2026-04-16 22:03 | -41.43400 | -73.09599 | 304 ft | 10 kts | 181° |
| 2026-04-16 22:03 | -41.43475 | -73.09602 | 301 ft | 12 kts | 181° |
| 2026-04-16 22:03 | -41.43566 | -73.09603 | 303 ft | 14 kts | 182° |
| 2026-04-16 22:03 | -41.43664 | -73.09608 | 302 ft | 14 kts | 182° |
| 2026-04-16 22:04 | -41.43756 | -73.09613 | 301 ft | 13 kts | 181° |
| 2026-04-16 22:04 | -41.43841 | -73.09616 | 301 ft | 12 kts | 181° |
| 2026-04-16 22:04 | -41.43918 | -73.09618 | 300 ft | 11 kts | 181° |
| 2026-04-16 22:04 | -41.43987 | -73.09620 | 300 ft | 9 kts | 181° |
| 2026-04-16 22:05 | -41.44048 | -73.09621 | 302 ft | 8 kts | 182° |
| 2026-04-16 22:05 | -41.44128 | -73.09626 | 300 ft | 16 kts | 181° |
| 2026-04-16 22:05 | -41.44262 | -73.09629 | 299 ft | 22 kts | 182° |
| 2026-04-16 22:05 | -41.44430 | -73.09636 | 301 ft | 27 kts | 181° |
| 2026-04-16 22:06 | -41.44629 | -73.09643 | 302 ft | 31 kts | 182° |
| 2026-04-16 22:06 | -41.44917 | -73.09653 | 303 ft | 19 kts | 181° |
| 2026-04-16 22:06 | -41.45018 | -73.09657 | 303 ft | 9 kts | 180° |
| 2026-04-16 22:07 | -41.45064 | -73.09619 | 302 ft | 6 kts | 117° |
| 2026-04-16 22:07 | -41.45068 | -73.09568 | 307 ft | 6 kts | 92° |
| 2026-04-16 22:07 | -41.45069 | -73.09521 | 308 ft | 3 kts | 89° |
| 2026-04-16 22:07 | -41.45067 | -73.09481 | 312 ft | 7 kts | 83° |
| 2026-04-16 22:08 | -41.44973 | -73.09435 | 308 ft | 31 kts | 0° |
| 2026-04-16 22:08 | -41.44495 | -73.09418 | 287 ft | 104 kts | 1° |
| 2026-04-16 22:08 | -41.43585 | -73.09384 | 310 ft | 154 kts | 2° |
| 2026-04-16 22:08 | -41.42866 | -73.09355 | 662 ft | 158 kts | 3° |
| 2026-04-16 22:09 | -41.41342 | -73.09293 | 1360 ft | 177 kts | 3° |
| 2026-04-16 22:09 | -41.40031 | -73.09245 | 1678 ft | 201 kts | 2° |
| 2026-04-16 22:09 | -41.38548 | -73.09193 | 2058 ft | 225 kts | 2° |
| 2026-04-16 22:09 | -41.36893 | -73.09137 | 2492 ft | 250 kts | 359° |
| 2026-04-16 22:10 | -41.35122 | -73.09080 | 3306 ft | 255 kts | 0° |
| 2026-04-16 22:10 | -41.33345 | -73.09016 | 4284 ft | 256 kts | 359° |
| 2026-04-16 22:10 | -41.31554 | -73.08952 | 5202 ft | 258 kts | 359° |
| 2026-04-16 22:10 | -41.30361 | -73.08914 | 5811 ft | 260 kts | 358° |
| 2026-04-16 22:11 | -41.28548 | -73.08858 | 6715 ft | 261 kts | 357° |
| 2026-04-16 22:11 | -41.26721 | -73.08797 | 7568 ft | 265 kts | 357° |
| 2026-04-16 22:11 | -41.24866 | -73.08542 | 8379 ft | 271 kts | 5° |
| 2026-04-16 22:11 | -41.22991 | -73.08132 | 9162 ft | 275 kts | 4° |
| 2026-04-16 22:12 | -41.21088 | -73.07718 | 9918 ft | 280 kts | 4° |
| 2026-04-16 22:12 | -41.19123 | -73.07297 | 10429 ft | 295 kts | 3° |
| 2026-04-16 22:12 | -41.17013 | -73.06853 | 10689 ft | 318 kts | 3° |
| 2026-04-16 22:12 | -41.14786 | -73.06379 | 11241 ft | 329 kts | 3° |
| 2026-04-16 22:13 | -41.12504 | -73.05886 | 11909 ft | 335 kts | 3° |
| 2026-04-16 22:13 | -41.10180 | -73.05380 | 12540 ft | 342 kts | 3° |
| 2026-04-16 22:13 | -41.07817 | -73.04868 | 13238 ft | 346 kts | 3° |
| 2026-04-16 22:13 | -41.05435 | -73.04353 | 13930 ft | 348 kts | 3° |
| 2026-04-16 22:14 | -41.03034 | -73.03835 | 14611 ft | 351 kts | 3° |
| 2026-04-16 22:14 | -41.00612 | -73.03311 | 15260 ft | 354 kts | 3° |
| 2026-04-16 22:14 | -40.98173 | -73.02785 | 15902 ft | 357 kts | 3° |
| 2026-04-16 22:14 | -40.95712 | -73.02259 | 16538 ft | 359 kts | 3° |
| 2026-04-16 22:15 | -40.93238 | -73.01730 | 17163 ft | 362 kts | 3° |
| 2026-04-16 22:15 | -40.90735 | -73.01195 | 17765 ft | 365 kts | 3° |
| 2026-04-16 22:15 | -40.88225 | -73.00657 | 18373 ft | 367 kts | 3° |
| 2026-04-16 22:15 | -40.85693 | -73.00117 | 18947 ft | 370 kts | 3° |
| 2026-04-16 22:16 | -40.83178 | -72.99580 | 19518 ft | 372 kts | 3° |
| 2026-04-16 22:16 | -40.80605 | -72.99031 | 20056 ft | 375 kts | 3° |
| 2026-04-16 22:16 | -40.77981 | -72.98475 | 20602 ft | 378 kts | 3° |
| 2026-04-16 22:16 | -40.75377 | -72.97922 | 21120 ft | 381 kts | 3° |
| 2026-04-16 22:17 | -40.72754 | -72.97364 | 21626 ft | 383 kts | 3° |
| 2026-04-16 22:17 | -40.70146 | -72.96808 | 22094 ft | 386 kts | 3° |
| 2026-04-16 22:17 | -40.67486 | -72.96242 | 22553 ft | 389 kts | 3° |
| 2026-04-16 22:17 | -40.64805 | -72.95672 | 23016 ft | 391 kts | 3° |
| 2026-04-16 22:18 | -40.62109 | -72.95101 | 23462 ft | 394 kts | 3° |
| 2026-04-16 22:18 | -40.59397 | -72.94526 | 23898 ft | 396 kts | 3° |
| 2026-04-16 22:18 | -40.56667 | -72.93948 | 24323 ft | 398 kts | 3° |
| 2026-04-16 22:18 | -40.53921 | -72.93367 | 24733 ft | 401 kts | 3° |
| 2026-04-16 22:19 | -40.51164 | -72.92781 | 25147 ft | 403 kts | 3° |
| 2026-04-16 22:19 | -40.48388 | -72.92189 | 25549 ft | 405 kts | 3° |
| 2026-04-16 22:19 | -40.45595 | -72.91596 | 25945 ft | 407 kts | 3° |
| 2026-04-16 22:19 | -40.42794 | -72.91003 | 26331 ft | 409 kts | 3° |
| 2026-04-16 22:20 | -40.39980 | -72.90411 | 26707 ft | 411 kts | 3° |
| 2026-04-16 22:20 | -40.37149 | -72.89820 | 27064 ft | 413 kts | 3° |
| 2026-04-16 22:20 | -40.34306 | -72.89229 | 27423 ft | 415 kts | 3° |
| 2026-04-16 22:20 | -40.31446 | -72.88669 | 27781 ft | 415 kts | 2° |
| 2026-04-16 22:21 | -40.28575 | -72.88175 | 28123 ft | 417 kts | 1° |
| 2026-04-16 22:21 | -40.25692 | -72.87721 | 28466 ft | 418 kts | 1° |
| 2026-04-16 22:21 | -40.22793 | -72.87281 | 28782 ft | 420 kts | 1° |
| 2026-04-16 22:21 | -40.19884 | -72.86837 | 29113 ft | 422 kts | 1° |
| 2026-04-16 22:22 | -40.16963 | -72.86379 | 29432 ft | 424 kts | 1° |
| 2026-04-16 22:22 | -40.14025 | -72.85907 | 29753 ft | 426 kts | 2° |
| 2026-04-16 22:22 | -40.11083 | -72.85426 | 30052 ft | 427 kts | 2° |
| 2026-04-16 22:22 | -40.08127 | -72.84940 | 30342 ft | 429 kts | 2° |
| 2026-04-16 22:23 | -40.05161 | -72.84453 | 30605 ft | 431 kts | 2° |
| 2026-04-16 22:23 | -40.02178 | -72.83963 | 30868 ft | 433 kts | 2° |
| 2026-04-16 22:23 | -39.99189 | -72.83473 | 31136 ft | 434 kts | 2° |
| 2026-04-16 22:23 | -39.96194 | -72.82981 | 31478 ft | 434 kts | 2° |
| 2026-04-16 22:24 | -39.93188 | -72.82491 | 31686 ft | 437 kts | 2° |
| 2026-04-16 22:24 | -39.90168 | -72.82004 | 31915 ft | 438 kts | 2° |
| 2026-04-16 22:24 | -39.87140 | -72.81514 | 32216 ft | 438 kts | 2° |
| 2026-04-16 22:24 | -39.84115 | -72.81026 | 32568 ft | 437 kts | 1° |
| 2026-04-16 22:25 | -39.81102 | -72.80543 | 32910 ft | 436 kts | 1° |
| 2026-04-16 22:25 | -39.78095 | -72.80063 | 33230 ft | 435 kts | 1° |
| 2026-04-16 22:25 | -39.75094 | -72.79582 | 33554 ft | 434 kts | 1° |
| 2026-04-16 22:25 | -39.72105 | -72.79098 | 33867 ft | 433 kts | 1° |
| 2026-04-16 22:26 | -39.69115 | -72.78600 | 34174 ft | 432 kts | 2° |
| 2026-04-16 22:26 | -39.66134 | -72.78071 | 34480 ft | 432 kts | 2° |
| 2026-04-16 22:26 | -39.63173 | -72.77526 | 34757 ft | 432 kts | 2° |
| 2026-04-16 22:26 | -39.60223 | -72.76971 | 35030 ft | 432 kts | 2° |
| 2026-04-16 22:27 | -39.57252 | -72.76411 | 35302 ft | 431 kts | 2° |
| 2026-04-16 22:27 | -39.54283 | -72.75857 | 35547 ft | 431 kts | 2° |
| 2026-04-16 22:27 | -39.51306 | -72.75307 | 35803 ft | 431 kts | 2° |
| 2026-04-16 22:27 | -39.48340 | -72.74767 | 35909 ft | 429 kts | 1° |
| 2026-04-16 22:28 | -39.42459 | -72.73712 | 35924 ft | 425 kts | 1° |
| 2026-04-16 22:28 | -39.36597 | -72.72669 | 35925 ft | 425 kts | 1° |
| 2026-04-16 22:29 | -39.30740 | -72.71608 | 35931 ft | 425 kts | 1° |
| 2026-04-16 22:29 | -39.24889 | -72.70542 | 35934 ft | 425 kts | 1° |
| 2026-04-16 22:30 | -39.19035 | -72.69482 | 35936 ft | 425 kts | 1° |
| 2026-04-16 22:30 | -39.13185 | -72.68428 | 35938 ft | 424 kts | 1° |
| 2026-04-16 22:31 | -39.07331 | -72.67380 | 35938 ft | 425 kts | 1° |
| 2026-04-16 22:31 | -39.01471 | -72.66324 | 35942 ft | 425 kts | 1° |
| 2026-04-16 22:32 | -38.95610 | -72.65271 | 35943 ft | 425 kts | 1° |
| 2026-04-16 22:32 | -38.89748 | -72.64198 | 35943 ft | 426 kts | 2° |
| 2026-04-16 22:33 | -38.83909 | -72.62673 | 35941 ft | 430 kts | 6° |
| 2026-04-16 22:33 | -38.78090 | -72.60879 | 35940 ft | 430 kts | 6° |
| 2026-04-16 22:34 | -38.72266 | -72.59125 | 35946 ft | 430 kts | 6° |
| 2026-04-16 22:34 | -38.66433 | -72.57453 | 35947 ft | 429 kts | 5° |
| 2026-04-16 22:35 | -38.60593 | -72.55807 | 35946 ft | 430 kts | 5° |
| 2026-04-16 22:35 | -38.54754 | -72.54156 | 35949 ft | 430 kts | 5° |
| 2026-04-16 22:36 | -38.48909 | -72.52493 | 35948 ft | 431 kts | 5° |
| 2026-04-16 22:36 | -38.43065 | -72.50833 | 35949 ft | 430 kts | 5° |
| 2026-04-16 22:37 | -38.37214 | -72.49185 | 35953 ft | 430 kts | 5° |
| 2026-04-16 22:37 | -38.31363 | -72.47545 | 35958 ft | 430 kts | 5° |
| 2026-04-16 22:38 | -38.25509 | -72.45902 | 35965 ft | 431 kts | 5° |
| 2026-04-16 22:38 | -38.19691 | -72.44269 | 35973 ft | 431 kts | 5° |
| 2026-04-16 22:39 | -38.13794 | -72.42617 | 35977 ft | 431 kts | 5° |
| 2026-04-16 22:39 | -38.07973 | -72.40986 | 35979 ft | 431 kts | 5° |
| 2026-04-16 22:40 | -38.02107 | -72.39352 | 35986 ft | 431 kts | 5° |
| 2026-04-16 22:40 | -37.96246 | -72.37724 | 35987 ft | 431 kts | 5° |
| 2026-04-16 22:41 | -37.90375 | -72.36092 | 35985 ft | 432 kts | 5° |
| 2026-04-16 22:41 | -37.84502 | -72.34452 | 35994 ft | 433 kts | 5° |
| 2026-04-16 22:42 | -37.78619 | -72.32818 | 35997 ft | 433 kts | 5° |
| 2026-04-16 22:42 | -37.72733 | -72.31200 | 36007 ft | 433 kts | 5° |
| 2026-04-16 22:43 | -37.66846 | -72.29573 | 36006 ft | 433 kts | 5° |
| 2026-04-16 22:43 | -37.60965 | -72.27906 | 36007 ft | 434 kts | 6° |
| 2026-04-16 22:44 | -37.55097 | -72.26097 | 36011 ft | 434 kts | 6° |
| 2026-04-16 22:44 | -37.49233 | -72.24263 | 36009 ft | 434 kts | 6° |
| 2026-04-16 22:45 | -37.43363 | -72.22452 | 36009 ft | 434 kts | 6° |
| 2026-04-16 22:45 | -37.37491 | -72.20671 | 36010 ft | 434 kts | 6° |
| 2026-04-16 22:46 | -37.31614 | -72.18903 | 36007 ft | 435 kts | 6° |
| 2026-04-16 22:46 | -37.25736 | -72.17117 | 36008 ft | 435 kts | 6° |
| 2026-04-16 22:47 | -37.19859 | -72.15339 | 36001 ft | 434 kts | 5° |
| 2026-04-16 22:47 | -37.14015 | -72.13579 | 35997 ft | 435 kts | 5° |
| 2026-04-16 22:48 | -37.08132 | -72.11804 | 35991 ft | 435 kts | 5° |
| 2026-04-16 22:48 | -37.02242 | -72.10028 | 35993 ft | 436 kts | 5° |
| 2026-04-16 22:49 | -36.96334 | -72.08247 | 35992 ft | 436 kts | 5° |
| 2026-04-16 22:49 | -36.90430 | -72.06464 | 35990 ft | 437 kts | 5° |
| 2026-04-16 22:50 | -36.84511 | -72.04685 | 35992 ft | 437 kts | 5° |
| 2026-04-16 22:50 | -36.78583 | -72.02910 | 35993 ft | 438 kts | 5° |
| 2026-04-16 22:51 | -36.72654 | -72.01147 | 35993 ft | 438 kts | 4° |
| 2026-04-16 22:51 | -36.66718 | -71.99381 | 35987 ft | 439 kts | 5° |
| 2026-04-16 22:52 | -36.60775 | -71.97602 | 35984 ft | 440 kts | 5° |
| 2026-04-16 22:52 | -36.54823 | -71.95829 | 35984 ft | 440 kts | 5° |
| 2026-04-16 22:53 | -36.48905 | -71.94079 | 35983 ft | 440 kts | 4° |
| 2026-04-16 22:53 | -36.42941 | -71.92312 | 35991 ft | 441 kts | 4° |
| 2026-04-16 22:54 | -36.36964 | -71.90545 | 35994 ft | 442 kts | 4° |
| 2026-04-16 22:54 | -36.30972 | -71.88782 | 35994 ft | 442 kts | 4° |
| 2026-04-16 22:55 | -36.24987 | -71.87015 | 35993 ft | 442 kts | 4° |
| 2026-04-16 22:55 | -36.19000 | -71.85237 | 35988 ft | 443 kts | 4° |
| 2026-04-16 22:56 | -36.13013 | -71.83474 | 35999 ft | 443 kts | 4° |
| 2026-04-16 22:56 | -36.08030 | -71.82014 | 36001 ft | 443 kts | 4° |
| 2026-04-16 22:57 | -36.02033 | -71.80253 | 36004 ft | 443 kts | 4° |
| 2026-04-16 22:57 | -35.96030 | -71.78493 | 36006 ft | 443 kts | 4° |
| 2026-04-16 22:58 | -35.90032 | -71.76738 | 36006 ft | 443 kts | 4° |
| 2026-04-16 22:58 | -35.84038 | -71.74994 | 36003 ft | 442 kts | 4° |
| 2026-04-16 22:59 | -35.78043 | -71.73254 | 35998 ft | 443 kts | 4° |
| 2026-04-16 22:59 | -35.72044 | -71.71511 | 36004 ft | 443 kts | 4° |
| 2026-04-16 23:00 | -35.66041 | -71.69759 | 36001 ft | 443 kts | 4° |
| 2026-04-16 23:00 | -35.60035 | -71.68012 | 36002 ft | 444 kts | 4° |
| 2026-04-16 23:01 | -35.54023 | -71.66272 | 36007 ft | 444 kts | 4° |
| 2026-04-16 23:01 | -35.48012 | -71.64531 | 36005 ft | 444 kts | 4° |
| 2026-04-16 23:02 | -35.41987 | -71.62790 | 36009 ft | 445 kts | 4° |
| 2026-04-16 23:02 | -35.35970 | -71.61048 | 36011 ft | 445 kts | 4° |
| 2026-04-16 23:03 | -35.29936 | -71.59303 | 36011 ft | 445 kts | 4° |
| 2026-04-16 23:03 | -35.23903 | -71.57573 | 36012 ft | 445 kts | 4° |
| 2026-04-16 23:04 | -35.17863 | -71.55846 | 36010 ft | 446 kts | 5° |
| 2026-04-16 23:04 | -35.11820 | -71.54119 | 36008 ft | 446 kts | 4° |
| 2026-04-16 23:05 | -35.05771 | -71.52394 | 35999 ft | 446 kts | 5° |
| 2026-04-16 23:05 | -34.99723 | -71.50656 | 36007 ft | 448 kts | 5° |
| 2026-04-16 23:06 | -34.93644 | -71.48918 | 36011 ft | 449 kts | 5° |
| 2026-04-16 23:06 | -34.87553 | -71.47176 | 36018 ft | 450 kts | 5° |
| 2026-04-16 23:07 | -34.81455 | -71.45426 | 36012 ft | 450 kts | 5° |
| 2026-04-16 23:07 | -34.75388 | -71.43702 | 35996 ft | 451 kts | 5° |
| 2026-04-16 23:08 | -34.72315 | -71.42836 | 35329 ft | 456 kts | 5° |
| 2026-04-16 23:08 | -34.69232 | -71.41967 | 34785 ft | 453 kts | 5° |
| 2026-04-16 23:08 | -34.66176 | -71.41092 | 34246 ft | 451 kts | 6° |
| 2026-04-16 23:08 | -34.63185 | -71.39874 | 33695 ft | 457 kts | 14° |
| 2026-04-16 23:09 | -34.60248 | -71.38419 | 33139 ft | 454 kts | 14° |
| 2026-04-16 23:09 | -34.57329 | -71.36973 | 32584 ft | 452 kts | 14° |
| 2026-04-16 23:09 | -34.54430 | -71.35537 | 32046 ft | 449 kts | 14° |
| 2026-04-16 23:09 | -34.51549 | -71.34112 | 31503 ft | 446 kts | 14° |
| 2026-04-16 23:10 | -34.48684 | -71.32697 | 30967 ft | 443 kts | 14° |
| 2026-04-16 23:10 | -34.45835 | -71.31295 | 30436 ft | 440 kts | 14° |
| 2026-04-16 23:10 | -34.43006 | -71.29908 | 29921 ft | 437 kts | 14° |
| 2026-04-16 23:10 | -34.40196 | -71.28535 | 29405 ft | 434 kts | 14° |
| 2026-04-16 23:11 | -34.37413 | -71.27176 | 28901 ft | 429 kts | 14° |
| 2026-04-16 23:11 | -34.34659 | -71.25829 | 28403 ft | 425 kts | 14° |
| 2026-04-16 23:11 | -34.31927 | -71.24490 | 27924 ft | 422 kts | 14° |
| 2026-04-16 23:11 | -34.29221 | -71.23160 | 27444 ft | 418 kts | 14° |
| 2026-04-16 23:12 | -34.26532 | -71.21838 | 26968 ft | 415 kts | 14° |
| 2026-04-16 23:12 | -34.23867 | -71.20532 | 26487 ft | 413 kts | 14° |
| 2026-04-16 23:12 | -34.21212 | -71.19239 | 26005 ft | 410 kts | 14° |
| 2026-04-16 23:12 | -34.18579 | -71.17960 | 25518 ft | 407 kts | 14° |
| 2026-04-16 23:13 | -34.15965 | -71.16689 | 25016 ft | 403 kts | 14° |
| 2026-04-16 23:13 | -34.13377 | -71.15423 | 24524 ft | 400 kts | 14° |
| 2026-04-16 23:13 | -34.10804 | -71.14167 | 24006 ft | 398 kts | 14° |
| 2026-04-16 23:13 | -34.08239 | -71.12915 | 23493 ft | 397 kts | 14° |
| 2026-04-16 23:14 | -34.05684 | -71.11671 | 22973 ft | 396 kts | 15° |
| 2026-04-16 23:14 | -34.03131 | -71.10432 | 22448 ft | 395 kts | 15° |
| 2026-04-16 23:14 | -34.00587 | -71.09200 | 21937 ft | 393 kts | 15° |
| 2026-04-16 23:14 | -33.98047 | -71.07972 | 21423 ft | 392 kts | 15° |
| 2026-04-16 23:15 | -33.93023 | -71.05537 | 20500 ft | 385 kts | 16° |
| 2026-04-16 23:15 | -33.90543 | -71.04330 | 20061 ft | 382 kts | 17° |
| 2026-04-16 23:15 | -33.88086 | -71.03130 | 19565 ft | 382 kts | 17° |
| 2026-04-16 23:16 | -33.85648 | -71.01947 | 19313 ft | 373 kts | 17° |
| 2026-04-16 23:16 | -33.83256 | -71.00789 | 18932 ft | 369 kts | 17° |
| 2026-04-16 23:16 | -33.80878 | -70.99641 | 18470 ft | 367 kts | 17° |
| 2026-04-16 23:16 | -33.78517 | -70.98505 | 18042 ft | 364 kts | 17° |
| 2026-04-16 23:17 | -33.76179 | -70.97381 | 17646 ft | 360 kts | 17° |
| 2026-04-16 23:17 | -33.73866 | -70.96265 | 17217 ft | 357 kts | 17° |
| 2026-04-16 23:17 | -33.71567 | -70.95156 | 16779 ft | 355 kts | 17° |
| 2026-04-16 23:17 | -33.69282 | -70.94055 | 16343 ft | 353 kts | 18° |
| 2026-04-16 23:18 | -33.67010 | -70.92960 | 15916 ft | 350 kts | 18° |
| 2026-04-16 23:18 | -33.64755 | -70.91873 | 15504 ft | 347 kts | 18° |
| 2026-04-16 23:18 | -33.62548 | -70.90816 | 15084 ft | 345 kts | 18° |
| 2026-04-16 23:18 | -33.60323 | -70.89751 | 14678 ft | 344 kts | 18° |
| 2026-04-16 23:19 | -33.58113 | -70.88687 | 14280 ft | 339 kts | 18° |
| 2026-04-16 23:19 | -33.55975 | -70.87497 | 13846 ft | 340 kts | 28° |
| 2026-04-16 23:19 | -33.53965 | -70.86013 | 13423 ft | 339 kts | 28° |
| 2026-04-16 23:19 | -33.51964 | -70.84538 | 13015 ft | 336 kts | 28° |
| 2026-04-16 23:20 | -33.49981 | -70.83079 | 12623 ft | 333 kts | 28° |
| 2026-04-16 23:20 | -33.48035 | -70.81647 | 12483 ft | 322 kts | 28° |
| 2026-04-16 23:20 | -33.46125 | -70.80352 | 12349 ft | 309 kts | 19° |
| 2026-04-16 23:20 | -33.44079 | -70.79810 | 12085 ft | 298 kts | 359° |
| 2026-04-16 23:21 | -33.42057 | -70.80168 | 11737 ft | 292 kts | 339° |
| 2026-04-16 23:21 | -33.40278 | -70.81306 | 11354 ft | 290 kts | 325° |
| 2026-04-16 23:21 | -33.38606 | -70.82674 | 10788 ft | 295 kts | 325° |
| 2026-04-16 23:21 | -33.36878 | -70.84083 | 10010 ft | 302 kts | 326° |
| 2026-04-16 23:22 | -33.35208 | -70.85434 | 9928 ft | 277 kts | 326° |
| 2026-04-16 23:22 | -33.33649 | -70.86692 | 9508 ft | 269 kts | 326° |
| 2026-04-16 23:22 | -33.32089 | -70.87948 | 8796 ft | 272 kts | 327° |
| 2026-04-16 23:22 | -33.30506 | -70.89216 | 8070 ft | 275 kts | 327° |
| 2026-04-16 23:23 | -33.28919 | -70.90490 | 7509 ft | 271 kts | 327° |
| 2026-04-16 23:23 | -33.27415 | -70.91701 | 7331 ft | 251 kts | 326° |
| 2026-04-16 23:23 | -33.25984 | -70.92778 | 7056 ft | 238 kts | 336° |
| 2026-04-16 23:23 | -33.24422 | -70.93272 | 6771 ft | 231 kts | 357° |
| 2026-04-16 23:24 | -33.22824 | -70.93082 | 6543 ft | 231 kts | 17° |
| 2026-04-16 23:24 | -33.21393 | -70.92236 | 6279 ft | 230 kts | 37° |
| 2026-04-16 23:24 | -33.20301 | -70.90856 | 5992 ft | 230 kts | 57° |
| 2026-04-16 23:24 | -33.19682 | -70.89128 | 5686 ft | 225 kts | 78° |
| 2026-04-16 23:25 | -33.19601 | -70.87304 | 5409 ft | 217 kts | 97° |
| 2026-04-16 23:25 | -33.20010 | -70.85627 | 5155 ft | 205 kts | 115° |
| 2026-04-16 23:25 | -33.20748 | -70.84208 | 4875 ft | 198 kts | 128° |
| 2026-04-16 23:25 | -33.21687 | -70.83034 | 4624 ft | 194 kts | 139° |
| 2026-04-16 23:26 | -33.22780 | -70.82114 | 4373 ft | 191 kts | 150° |
| 2026-04-16 23:26 | -33.23989 | -70.81485 | 4138 ft | 189 kts | 162° |
| 2026-04-16 23:26 | -33.25268 | -70.81148 | 3887 ft | 187 kts | 174° |
| 2026-04-16 23:26 | -33.26557 | -70.81031 | 3647 ft | 185 kts | 176° |
| 2026-04-16 23:27 | -33.27830 | -70.80924 | 3407 ft | 180 kts | 176° |
| 2026-04-16 23:27 | -33.29042 | -70.80820 | 3210 ft | 166 kts | 176° |
| 2026-04-16 23:27 | -33.30159 | -70.80738 | 2975 ft | 157 kts | 178° |
| 2026-04-16 23:27 | -33.31246 | -70.80678 | 2766 ft | 155 kts | 181° |
| 2026-04-16 23:28 | -33.32299 | -70.80623 | 2567 ft | 148 kts | 181° |
| 2026-04-16 23:28 | -33.33286 | -70.80569 | 2378 ft | 141 kts | 180° |
| 2026-04-16 23:28 | -33.34254 | -70.80518 | 2193 ft | 138 kts | 178° |
| 2026-04-16 23:28 | -33.35209 | -70.80471 | 1988 ft | 137 kts | 177° |
| 2026-04-16 23:29 | -33.36158 | -70.80427 | 1790 ft | 136 kts | 177° |
| 2026-04-16 23:29 | -33.37107 | -70.80378 | 1637 ft | 137 kts | 177° |
| 2026-04-16 23:29 | -33.38019 | -70.80330 | 1572 ft | 118 kts | 177° |
| 2026-04-16 23:29 | -33.38661 | -70.80296 | 1574 ft | 72 kts | 178° |
| 2026-04-16 23:30 | -33.39075 | -70.80273 | 1574 ft | 52 kts | 176° |
| 2026-04-16 23:30 | -33.39340 | -70.80190 | 1571 ft | 28 kts | 154° |
| 2026-04-16 23:30 | -33.39457 | -70.80109 | 1567 ft | 8 kts | 145° |
| 2026-04-16 23:30 | -33.39504 | -70.80056 | 1566 ft | 10 kts | 126° |
| 2026-04-16 23:31 | -33.39529 | -70.79974 | 1565 ft | 11 kts | 92° |
| 2026-04-16 23:31 | -33.39528 | -70.79886 | 1565 ft | 10 kts | 88° |
| 2026-04-16 23:31 | -33.39526 | -70.79809 | 1565 ft | 9 kts | 88° |
| 2026-04-16 23:31 | -33.39523 | -70.79743 | 1565 ft | 7 kts | 87° |
| 2026-04-16 23:32 | -33.39521 | -70.79688 | 1565 ft | 6 kts | 87° |
| 2026-04-16 23:32 | -33.39520 | -70.79645 | 1564 ft | 5 kts | 88° |
| 2026-04-16 23:32 | -33.39517 | -70.79580 | 1564 ft | 9 kts | 88° |
| 2026-04-16 23:32 | -33.39541 | -70.79534 | 1564 ft | 7 kts | 177° |
| 2026-04-16 23:33 | -33.39583 | -70.79534 | 1565 ft | 2 kts | 178° |
| 2026-04-16 23:33 | -33.39593 | -70.79533 | 1564 ft | 1 kts | 178° |
| 2026-04-16 23:33 | -33.39600 | -70.79533 | 1564 ft | 0 kts | 177° |